Time;durP1;ratioP1;P1;durP2;ratioP2;P2;SDS_P1;SDS_P2;PMS_P1;PMS_P2;Temp;Humidity;BMP_temperature;BMP_pressure;BME280_temperature;BME280_humidity;BME280_pressure;Samples;Min_cycle;Max_cycle;Signal;HPM_P1;HPM_P2
2022/12/25 00:01:23;;;;;;;2.30;1.85;;;8.30;99.90;;;;;;5000606;28;20056;-83
2022/12/25 00:03:49;;;;;;;2.45;2.08;;;8.30;99.90;;;;;;5000626;28;20033;-83
2022/12/25 00:06:15;;;;;;;3.75;2.08;;;8.30;99.90;;;;;;5018438;28;20417;-82
2022/12/25 00:08:42;;;;;;;4.93;2.10;;;8.20;99.90;;;;;;5000571;28;20041;-83
2022/12/25 00:11:13;;;;;;;3.42;2.00;;;8.10;99.90;;;;;;4984297;28;20041;-83
2022/12/25 00:13:38;;;;;;;4.15;2.00;;;8.10;99.90;;;;;;5018721;28;20022;-82
2022/12/25 00:16:25;;;;;;;3.08;2.10;;;8.10;99.90;;;;;;5001265;28;20021;-82
2022/12/25 00:18:51;;;;;;;2.90;1.88;;;8.00;99.90;;;;;;5002662;28;20100;-82
2022/12/25 00:21:22;;;;;;;3.17;2.00;;;8.00;99.90;;;;;;5017733;28;20464;-82
2022/12/25 00:23:52;;;;;;;3.55;2.10;;;7.90;99.90;;;;;;4999533;28;20076;-82
2022/12/25 00:26:18;;;;;;;2.80;1.80;;;7.90;99.90;;;;;;5000300;28;20032;-82
2022/12/25 00:28:44;;;;;;;2.53;1.50;;;7.90;99.90;;;;;;5000013;28;20034;-83
2022/12/25 00:31:20;;;;;;;3.20;2.22;;;7.90;99.90;;;;;;5018228;28;20021;-82
2022/12/25 00:33:47;;;;;;;2.00;1.63;;;7.80;99.90;;;;;;5010617;28;20459;-83
2022/12/25 00:36:15;;;;;;;2.38;1.50;;;7.90;99.90;;;;;;5008730;28;20022;-82
2022/12/25 00:38:42;;;;;;;2.50;1.65;;;7.80;99.90;;;;;;5032843;28;20037;-83
2022/12/25 00:41:10;;;;;;;2.33;1.55;;;7.80;99.90;;;;;;5003569;28;20066;-82
2022/12/25 00:43:37;;;;;;;1.55;1.40;;;7.70;99.90;;;;;;5027942;28;20022;-82
2022/12/25 00:46:05;;;;;;;1.95;1.45;;;7.70;99.90;;;;;;4992582;28;20034;-82
2022/12/25 00:48:32;;;;;;;2.25;1.88;;;7.70;99.90;;;;;;5011244;28;20024;-82
2022/12/25 00:51:04;;;;;;;2.00;1.27;;;7.60;99.90;;;;;;5021947;28;20034;-83
2022/12/25 00:53:31;;;;;;;2.33;1.40;;;7.50;99.90;;;;;;5019499;28;20018;-83
2022/12/25 00:56:02;;;;;;;1.77;1.55;;;7.50;99.90;;;;;;5019770;28;20125;-83
2022/12/25 00:58:30;;;;;;;1.92;1.20;;;7.50;99.90;;;;;;5024386;28;20053;-83
2022/12/25 01:00:55;;;;;;;1.23;1.02;;;7.50;99.90;;;;;;5016256;28;20049;-82
2022/12/25 01:03:22;;;;;;;1.85;1.00;;;7.40;99.90;;;;;;5015520;28;20057;-82
2022/12/25 01:05:56;;;;;;;2.20;1.20;;;7.40;99.90;;;;;;5034724;28;20029;-83
2022/12/25 01:08:22;;;;;;;1.42;1.13;;;7.50;99.90;;;;;;5019857;28;20098;-82
2022/12/25 01:10:59;;;;;;;1.60;1.13;;;7.40;99.90;;;;;;5037379;28;20026;-82
2022/12/25 01:13:25;;;;;;;1.15;0.93;;;7.40;99.90;;;;;;5018305;28;20025;-83
2022/12/25 01:15:53;;;;;;;1.25;1.00;;;7.40;99.90;;;;;;5030661;28;20032;-82
2022/12/25 01:18:19;;;;;;;1.67;0.85;;;7.40;99.90;;;;;;5017151;28;20057;-83
2022/12/25 01:20:44;;;;;;;1.55;1.10;;;7.50;99.90;;;;;;5036257;28;20022;-82
2022/12/25 01:23:10;;;;;;;0.90;0.70;;;7.40;99.90;;;;;;5020331;28;20089;-83
2022/12/25 01:25:36;;;;;;;0.77;0.70;;;7.50;99.90;;;;;;5037218;28;20052;-82
2022/12/25 01:28:02;;;;;;;0.98;0.70;;;7.60;99.90;;;;;;5018019;28;20144;-82
2022/12/25 01:30:28;;;;;;;0.68;0.60;;;7.60;99.90;;;;;;5028876;28;20129;-82
2022/12/25 01:32:54;;;;;;;0.90;0.73;;;7.70;99.90;;;;;;5002817;28;20034;-82
2022/12/25 01:35:20;;;;;;;1.15;0.80;;;7.70;99.90;;;;;;4999166;28;20167;-82
2022/12/25 01:37:46;;;;;;;0.68;0.68;;;7.70;99.90;;;;;;5016722;28;20516;-82
2022/12/25 01:40:12;;;;;;;0.77;0.70;;;7.70;99.90;;;;;;4999491;28;20065;-82
2022/12/25 01:42:38;;;;;;;1.08;0.63;;;7.70;99.90;;;;;;4999284;28;20018;-82
2022/12/25 01:45:33;;;;;;;0.57;0.50;;;7.70;99.90;;;;;;5016032;28;20026;-82
2022/12/25 01:48:07;;;;;;;0.57;0.50;;;7.80;99.90;;;;;;4998903;28;20018;-82
2022/12/25 01:50:38;;;;;;;0.57;0.57;;;7.80;99.90;;;;;;4998633;28;20053;-82
2022/12/25 01:53:04;;;;;;;0.70;0.50;;;7.80;99.90;;;;;;4998197;28;20447;-82
2022/12/25 01:55:32;;;;;;;0.88;0.68;;;7.80;99.90;;;;;;5015868;28;20030;-82
2022/12/25 01:57:59;;;;;;;0.73;0.60;;;7.80;99.90;;;;;;5016127;28;20053;-82
2022/12/25 02:00:26;;;;;;;0.73;0.60;;;7.80;99.90;;;;;;5015676;28;20033;-82
2022/12/25 02:02:52;;;;;;;1.08;0.50;;;7.90;99.90;;;;;;4981863;28;20034;-83
2022/12/25 02:05:23;;;;;;;0.65;0.40;;;7.90;99.90;;;;;;4998498;28;20133;-82
2022/12/25 02:07:50;;;;;;;0.63;0.60;;;7.90;99.90;;;;;;4998056;28;20609;-82
2022/12/25 02:10:16;;;;;;;0.63;0.63;;;7.90;99.90;;;;;;5015357;28;20029;-82
2022/12/25 02:12:44;;;;;;;0.93;0.50;;;7.90;99.90;;;;;;4997446;28;20022;-82
2022/12/25 02:15:43;;;;;;;0.73;0.60;;;7.90;99.90;;;;;;5015618;28;20327;-83
2022/12/25 02:18:25;;;;;;;0.45;0.38;;;7.90;99.90;;;;;;4998267;28;20432;-82
2022/12/25 02:21:06;;;;;;;0.43;0.43;;;7.90;99.90;;;;;;4997697;28;20450;-82
2022/12/25 02:23:47;;;;;;;0.63;0.43;;;7.90;99.90;;;;;;5015566;28;20037;-82
2022/12/25 02:26:39;;;;;;;0.50;0.40;;;7.90;99.90;;;;;;4998434;28;20117;-82
2022/12/25 02:29:07;;;;;;;0.47;0.32;;;7.90;99.90;;;;;;4999752;28;20073;-82
2022/12/25 02:31:42;;;;;;;0.50;0.30;;;7.90;99.90;;;;;;5017019;28;20021;-82
2022/12/25 02:34:19;;;;;;;0.20;0.20;;;7.90;99.90;;;;;;5015834;28;20084;-83
2022/12/25 02:36:59;;;;;;;1.83;0.40;;;8.00;99.90;;;;;;4998370;28;20070;-82
2022/12/25 02:40:03;;;;;;;1.17;0.50;;;8.00;99.90;;;;;;5014745;28;20013;-82
2022/12/25 03:08:02;;;;;;;0.40;0.40;;;8.10;99.90;;;;;;4988759;28;20044;-82
2022/12/25 03:13:18;;;;;;;0.50;0.50;;;8.10;99.90;;;;;;5017176;28;20448;-82
2022/12/25 03:18:31;;;;;;;1.00;0.38;;;8.10;99.90;;;;;;5015624;28;20130;-82
2022/12/25 03:26:53;;;;;;;0.25;0.25;;;8.10;99.90;;;;;;5015828;28;20084;-81
2022/12/25 03:26:54;;;;;;;0.57;0.57;;;8.10;99.90;;;;;;5015791;28;20129;-83
2022/12/25 03:32:46;;;;;;;0.40;0.40;;;8.20;99.90;;;;;;5019934;28;20136;-83
2022/12/25 03:35:22;;;;;;;0.28;0.28;;;8.20;99.90;;;;;;5019718;28;20033;-82
2022/12/25 03:44:53;;;;;;;0.65;0.40;;;8.20;99.90;;;;;;5037337;28;20024;-81
2022/12/25 04:37:53;;;;;;;1.10;0.60;;;8.30;99.90;;;;;;5020051;28;20033;-82
2022/12/25 04:40:19;;;;;;;0.70;0.45;;;8.30;99.90;;;;;;5003392;28;20026;-82
2022/12/25 04:42:45;;;;;;;0.60;0.60;;;8.30;99.90;;;;;;5024597;28;20018;-83
2022/12/25 04:45:11;;;;;;;1.50;0.68;;;8.30;99.90;;;;;;5037405;28;20037;-82
2022/12/25 04:47:38;;;;;;;0.57;0.52;;;8.30;99.90;;;;;;5019938;28;20056;-82
2022/12/25 04:50:04;;;;;;;0.30;0.30;;;8.30;99.90;;;;;;5020353;28;20085;-83
2022/12/25 04:52:37;;;;;;;1.10;0.50;;;8.30;99.90;;;;;;5037137;28;20089;-83
2022/12/25 04:55:05;;;;;;;0.50;0.50;;;8.30;99.90;;;;;;5037174;28;20170;-82
2022/12/25 04:57:31;;;;;;;1.08;0.50;;;8.30;99.90;;;;;;5036858;28;20078;-82
2022/12/25 04:59:57;;;;;;;0.45;0.40;;;8.30;99.90;;;;;;5008882;28;20037;-82
2022/12/25 05:02:22;;;;;;;0.80;0.75;;;8.20;99.90;;;;;;5021802;28;20473;-84
2022/12/25 05:04:49;;;;;;;0.75;0.75;;;8.20;99.90;;;;;;5002510;28;20026;-83
2022/12/25 05:07:14;;;;;;;1.13;0.52;;;8.20;99.90;;;;;;5000900;28;20036;-83
2022/12/25 05:09:40;;;;;;;0.60;0.50;;;8.20;99.90;;;;;;5018354;28;20038;-83
2022/12/25 05:12:07;;;;;;;0.88;0.77;;;8.20;99.90;;;;;;5020276;28;20465;-83
2022/12/25 05:14:33;;;;;;;1.23;0.70;;;8.20;99.90;;;;;;5018341;28;20030;-83
2022/12/25 05:16:58;;;;;;;0.63;0.50;;;8.10;99.90;;;;;;5018243;28;20022;-83
2022/12/25 05:19:25;;;;;;;0.50;0.50;;;8.10;99.90;;;;;;5018330;28;20444;-83
2022/12/25 05:21:51;;;;;;;1.42;0.70;;;8.20;99.90;;;;;;5019060;28;20025;-83
2022/12/25 05:24:17;;;;;;;1.40;0.73;;;8.20;99.90;;;;;;4999997;28;20117;-83
2022/12/25 05:26:43;;;;;;;0.60;0.50;;;8.10;99.90;;;;;;5018052;28;20110;-83
2022/12/25 05:29:09;;;;;;;0.57;0.57;;;8.10;99.90;;;;;;5017146;28;20032;-83
2022/12/25 05:31:35;;;;;;;1.23;0.63;;;8.10;99.90;;;;;;5000636;28;20032;-83
2022/12/25 05:34:01;;;;;;;0.95;0.70;;;8.10;99.90;;;;;;5000556;28;20037;-83
2022/12/25 05:36:27;;;;;;;0.68;0.68;;;8.10;99.90;;;;;;5000551;28;20037;-84
2022/12/25 05:38:53;;;;;;;0.70;0.70;;;8.10;99.90;;;;;;5002480;28;20026;-83
2022/12/25 05:41:19;;;;;;;0.77;0.73;;;8.10;99.90;;;;;;5024683;28;20014;-83
2022/12/25 05:43:45;;;;;;;0.50;0.50;;;8.10;99.90;;;;;;5037039;28;20018;-83
2022/12/25 05:46:13;;;;;;;1.00;0.90;;;8.10;99.90;;;;;;4992102;28;20558;-82
2022/12/25 05:48:38;;;;;;;1.35;0.70;;;8.10;99.90;;;;;;4999500;28;20026;-83
2022/12/25 05:51:13;;;;;;;0.85;0.80;;;8.10;99.90;;;;;;4999325;28;20033;-83
2022/12/25 05:53:40;;;;;;;1.27;0.90;;;8.10;99.90;;;;;;4998630;28;20033;-83
2022/12/25 05:56:07;;;;;;;0.77;0.70;;;8.10;99.90;;;;;;5016467;28;20033;-83
2022/12/25 05:58:35;;;;;;;1.58;0.70;;;8.10;99.90;;;;;;4999059;28;20056;-83
2022/12/25 06:01:01;;;;;;;0.80;0.70;;;8.00;99.90;;;;;;5017378;28;20026;-83
2022/12/25 06:03:26;;;;;;;2.95;0.80;;;8.00;99.90;;;;;;5021622;28;20033;-83
2022/12/25 06:05:53;;;;;;;1.30;0.90;;;8.00;99.90;;;;;;5017419;28;20041;-83
2022/12/25 06:08:19;;;;;;;2.88;0.88;;;8.00;99.90;;;;;;5022805;28;20002;-82
2022/12/25 06:10:44;;;;;;;1.83;0.75;;;8.00;99.90;;;;;;5018653;28;20060;-83
2022/12/25 06:13:11;;;;;;;1.58;0.98;;;8.00;99.90;;;;;;5017013;28;20473;-83
2022/12/25 06:15:40;;;;;;;2.22;1.10;;;7.90;99.90;;;;;;4997848;28;20033;-83
2022/12/25 06:18:06;;;;;;;1.50;0.75;;;7.90;99.90;;;;;;4998719;28;20045;-83
2022/12/25 06:20:32;;;;;;;0.50;0.50;;;7.90;99.90;;;;;;4999563;28;20037;-83
2022/12/25 06:22:58;;;;;;;0.85;0.63;;;7.90;99.90;;;;;;5000292;28;20419;-83
2022/12/25 06:25:24;;;;;;;4.55;1.00;;;7.80;99.90;;;;;;5017516;28;20045;-83
2022/12/25 06:27:50;;;;;;;1.33;1.10;;;7.80;99.90;;;;;;5017625;28;20034;-83
2022/12/25 06:30:16;;;;;;;4.22;1.17;;;7.80;99.90;;;;;;5000350;28;20022;-83
2022/12/25 06:32:42;;;;;;;1.88;1.13;;;7.80;99.90;;;;;;4999485;28;20129;-83
2022/12/25 06:35:08;;;;;;;1.38;1.00;;;7.80;99.90;;;;;;5018409;28;20053;-84
2022/12/25 06:37:33;;;;;;;2.08;1.05;;;7.80;99.90;;;;;;4999299;28;20094;-82
2022/12/25 06:39:59;;;;;;;1.50;0.85;;;7.80;99.90;;;;;;5016447;28;20291;-82
2022/12/25 06:42:25;;;;;;;1.27;1.13;;;7.80;99.90;;;;;;5017815;28;20022;-82
2022/12/25 06:44:52;;;;;;;0.93;0.82;;;7.80;99.90;;;;;;5016238;28;20052;-82
2022/12/25 06:47:17;;;;;;;0.70;0.70;;;7.80;99.90;;;;;;5016409;28;20022;-82
2022/12/25 06:49:43;;;;;;;1.38;0.98;;;7.80;99.90;;;;;;4999317;28;20117;-82
2022/12/25 06:52:09;;;;;;;1.75;1.10;;;7.80;99.90;;;;;;5016899;28;20010;-82
2022/12/25 06:54:34;;;;;;;2.47;1.27;;;7.80;99.90;;;;;;5016923;28;20030;-82
2022/12/25 06:57:01;;;;;;;1.67;0.70;;;7.80;99.90;;;;;;5002488;28;20480;-82
2022/12/25 06:59:26;;;;;;;1.40;1.10;;;7.80;99.90;;;;;;5003321;28;20073;-82
2022/12/25 07:01:57;;;;;;;1.02;0.80;;;7.80;99.90;;;;;;5022006;28;20041;-82
2022/12/25 07:04:39;;;;;;;0.90;0.77;;;7.90;99.90;;;;;;5025080;28;20022;-81
2022/12/25 07:07:06;;;;;;;1.75;0.70;;;7.90;99.90;;;;;;5005073;28;20040;-82
2022/12/25 07:09:32;;;;;;;1.58;0.93;;;7.90;99.90;;;;;;5002336;28;20428;-81
2022/12/25 07:12:13;;;;;;;1.42;0.88;;;7.90;99.90;;;;;;5019281;28;20093;-81
2022/12/25 07:14:39;;;;;;;2.58;0.73;;;7.90;99.90;;;;;;5001406;28;20026;-82
2022/12/25 07:17:05;;;;;;;1.02;0.70;;;7.90;99.90;;;;;;5020074;28;20433;-82
2022/12/25 07:19:30;;;;;;;1.20;0.90;;;7.90;99.90;;;;;;5022484;28;20034;-82
2022/12/25 07:21:56;;;;;;;1.90;0.98;;;7.90;99.90;;;;;;5020415;28;20029;-82
2022/12/25 07:24:22;;;;;;;1.67;1.10;;;8.00;99.90;;;;;;5019629;28;20034;-83
2022/12/25 07:26:49;;;;;;;1.38;0.93;;;8.00;99.90;;;;;;5019466;28;20034;-82
2022/12/25 07:29:16;;;;;;;1.75;1.00;;;8.00;99.90;;;;;;5002073;28;20022;-81
2022/12/25 07:31:41;;;;;;;1.77;0.98;;;8.00;99.90;;;;;;5019305;28;20097;-83
2022/12/25 07:34:08;;;;;;;0.90;0.90;;;8.10;99.90;;;;;;5019865;28;20061;-81
2022/12/25 07:36:34;;;;;;;2.65;1.40;;;8.10;99.90;;;;;;5002515;28;20049;-82
2022/12/25 07:39:00;;;;;;;2.10;1.30;;;8.10;99.90;;;;;;5021343;28;20080;-82
2022/12/25 07:41:25;;;;;;;1.85;1.13;;;8.10;99.90;;;;;;5019316;28;20033;-81
2022/12/25 07:43:52;;;;;;;1.13;0.85;;;8.20;99.90;;;;;;5022555;28;20493;-83
2022/12/25 07:46:19;;;;;;;1.58;0.85;;;8.30;99.90;;;;;;5006441;28;20086;-83
2022/12/25 07:48:45;;;;;;;1.38;0.80;;;8.30;99.90;;;;;;5032078;28;20088;-83
2022/12/25 07:51:13;;;;;;;1.17;1.00;;;8.30;99.90;;;;;;5032995;28;20021;-82
2022/12/25 07:53:39;;;;;;;1.30;0.80;;;8.40;99.90;;;;;;5033116;28;20034;-82
2022/12/25 07:56:06;;;;;;;2.38;1.25;;;8.50;99.90;;;;;;5033740;28;20032;-82
2022/12/25 07:58:33;;;;;;;1.45;0.93;;;8.50;99.90;;;;;;5019491;28;20022;-81
2022/12/25 08:01:28;;;;;;;1.80;0.93;;;8.60;99.90;;;;;;5035353;28;20085;-81
2022/12/25 08:03:57;;;;;;;0.85;0.63;;;8.70;99.90;;;;;;4994880;28;20106;-83
2022/12/25 08:06:28;;;;;;;1.25;0.68;;;8.90;99.90;;;;;;5033157;28;20031;-82
2022/12/25 08:08:55;;;;;;;1.98;0.80;;;9.00;99.90;;;;;;5013455;28;20022;-83
2022/12/25 08:11:22;;;;;;;1.55;0.80;;;9.10;99.90;;;;;;5000909;28;20026;-83
2022/12/25 08:13:48;;;;;;;2.92;1.52;;;9.20;99.90;;;;;;5018738;28;20053;-83
2022/12/25 08:16:13;;;;;;;4.15;2.20;;;9.20;99.90;;;;;;5000831;28;20026;-83
2022/12/25 08:18:39;;;;;;;3.63;2.33;;;9.20;99.90;;;;;;5019064;28;20057;-83
2022/12/25 08:21:14;;;;;;;7.93;3.53;;;9.10;99.90;;;;;;5019203;28;20022;-83
2022/12/25 08:23:44;;;;;;;7.22;4.18;;;9.00;99.90;;;;;;5019659;28;20152;-83
2022/12/25 08:26:13;;;;;;;11.13;5.35;;;9.00;99.90;;;;;;5026153;28;20045;-83
2022/12/25 08:28:38;;;;;;;10.88;5.22;;;8.90;99.90;;;;;;5017986;28;20044;-83
2022/12/25 08:31:10;;;;;;;9.85;4.72;;;8.90;99.90;;;;;;5036598;28;20017;-83
2022/12/25 08:33:37;;;;;;;6.70;3.65;;;8.90;99.90;;;;;;5038612;28;20097;-83
2022/12/25 08:36:09;;;;;;;5.68;2.72;;;8.80;99.90;;;;;;5031129;28;20048;-82
2022/12/25 08:38:35;;;;;;;;;;;8.80;99.90;;;;;;5025798;28;20025;-83
2022/12/25 08:41:01;;;;;;;3.72;2.13;;;8.80;99.90;;;;;;5009656;28;19910;-83
2022/12/25 08:43:30;;;;;;;3.25;1.50;;;8.80;99.90;;;;;;5027950;28;20142;-83
2022/12/25 08:45:55;;;;;;;2.08;1.10;;;8.90;99.90;;;;;;5024233;28;20089;-83
2022/12/25 08:48:21;;;;;;;1.70;1.13;;;8.80;99.90;;;;;;5024287;28;20022;-83
2022/12/25 08:50:49;;;;;;;1.98;1.10;;;8.80;99.90;;;;;;5023487;28;20040;-83
2022/12/25 08:53:15;;;;;;;2.08;0.73;;;8.80;99.90;;;;;;5020879;28;20022;-83
2022/12/25 08:55:43;;;;;;;1.23;0.90;;;8.80;99.90;;;;;;5020439;28;20029;-83
2022/12/25 08:58:10;;;;;;;0.60;0.60;;;8.90;99.90;;;;;;5003728;28;20045;-83
2022/12/25 09:00:36;;;;;;;3.03;1.63;;;9.00;99.90;;;;;;5003420;28;20026;-83
2022/12/25 09:03:03;;;;;;;5.03;2.20;;;9.10;99.90;;;;;;5020178;28;20488;-83
2022/12/25 09:05:30;;;;;;;4.57;2.58;;;9.20;99.90;;;;;;5001453;28;20033;-83
2022/12/25 09:07:55;;;;;;;5.72;2.22;;;9.30;99.90;;;;;;5002379;28;20105;-83
2022/12/25 09:10:21;;;;;;;3.88;1.85;;;9.50;99.90;;;;;;5019529;28;20456;-84
2022/12/25 09:12:49;;;;;;;3.30;1.40;;;9.60;99.90;;;;;;5001796;28;20051;-83
2022/12/25 09:15:15;;;;;;;1.77;0.93;;;9.80;99.90;;;;;;5001964;28;20093;-84
2022/12/25 09:17:41;;;;;;;1.42;0.90;;;10.00;99.90;;;;;;5020745;28;20088;-83
2022/12/25 09:20:07;;;;;;;0.60;0.50;;;10.20;99.90;;;;;;5020045;28;20069;-84
2022/12/25 09:22:53;;;;;;;2.92;1.33;;;10.40;99.90;;;;;;5019852;28;20030;-83
2022/12/25 09:25:18;;;;;;;1.25;0.80;;;10.50;99.90;;;;;;5022969;28;20026;-82
2022/12/25 09:27:44;;;;;;;0.40;0.40;;;10.60;99.90;;;;;;5009556;28;20040;-82
2022/12/25 09:30:10;;;;;;;0.50;0.50;;;10.70;99.90;;;;;;5027722;28;20037;-81
2022/12/25 09:32:36;;;;;;;0.70;0.70;;;10.70;99.90;;;;;;5027636;28;20026;-82
2022/12/25 09:35:02;;;;;;;0.75;0.52;;;10.70;99.90;;;;;;5025734;28;20416;-83
2022/12/25 09:37:28;;;;;;;0.82;0.50;;;10.70;99.90;;;;;;5006054;28;20029;-83
2022/12/25 09:39:54;;;;;;;0.88;0.50;;;10.80;99.90;;;;;;5008924;28;20120;-83
2022/12/25 09:42:23;;;;;;;0.75;0.57;;;10.80;99.90;;;;;;5009921;28;20013;-83
2022/12/25 09:45:18;;;;;;;0.75;0.50;;;10.90;99.90;;;;;;5026976;28;20026;-83
2022/12/25 09:47:47;;;;;;;0.68;0.68;;;10.80;99.90;;;;;;5010932;28;20036;-83
2022/12/25 09:50:18;;;;;;;2.47;0.70;;;10.90;99.90;;;;;;5009512;28;20038;-83
2022/12/25 09:52:53;;;;;;;1.50;1.05;;;10.90;99.90;;;;;;5027685;28;20033;-83
2022/12/25 09:55:23;;;;;;;1.10;0.80;;;10.90;99.90;;;;;;5025985;28;20030;-82
2022/12/25 09:57:51;;;;;;;1.63;1.13;;;10.90;99.90;;;;;;5024197;28;20025;-82
2022/12/25 10:00:20;;;;;;;2.78;0.88;;;10.90;99.90;;;;;;5023638;28;20049;-82
2022/12/25 10:03:09;;;;;;;1.33;0.88;;;11.00;99.90;;;;;;5024178;28;20116;-82
2022/12/25 10:05:54;;;;;;;0.75;0.73;;;11.10;99.90;;;;;;5007922;28;20029;-83
2022/12/25 10:08:53;;;;;;;2.40;0.93;;;11.30;99.90;;;;;;5010963;28;20037;-83
2022/12/25 10:11:40;;;;;;;2.30;0.95;;;11.50;99.90;;;;;;5008782;28;20023;-83
2022/12/25 10:14:14;;;;;;;1.05;0.50;;;11.60;99.90;;;;;;5010302;28;20046;-83
2022/12/25 10:16:55;;;;;;;1.65;0.52;;;11.60;99.90;;;;;;5008174;28;20024;-83
2022/12/25 10:19:56;;;;;;;1.02;0.73;;;11.50;99.90;;;;;;5005671;28;20037;-84
2022/12/25 10:22:39;;;;;;;1.80;0.90;;;11.60;99.90;;;;;;5004602;28;20211;-83
2022/12/25 10:25:13;;;;;;;1.55;1.30;;;11.60;99.90;;;;;;4988971;28;20019;-83
2022/12/25 10:27:41;;;;;;;1.67;0.70;;;11.70;99.90;;;;;;5008685;28;20023;-83
2022/12/25 10:30:22;;;;;;;0.80;0.80;;;11.80;99.90;;;;;;4991478;28;20026;-83
2022/12/25 10:32:48;;;;;;;1.90;0.75;;;12.00;99.60;;;;;;5012297;28;20018;-83
2022/12/25 10:35:23;;;;;;;0.60;0.60;;;12.10;99.30;;;;;;5016235;28;20034;-84
2022/12/25 10:38:14;;;;;;;1.80;1.00;;;12.20;99.00;;;;;;5027020;28;20010;-83
2022/12/25 10:40:42;;;;;;;1.02;0.90;;;12.30;98.80;;;;;;5035286;28;20053;-84
2022/12/25 10:43:35;;;;;;;0.80;0.70;;;12.30;98.50;;;;;;5017690;28;20018;-83
2022/12/25 10:46:21;;;;;;;2.30;0.60;;;12.30;98.10;;;;;;5017892;28;20113;-83
2022/12/25 10:49:01;;;;;;;1.23;0.70;;;12.30;98.20;;;;;;5030911;28;20045;-82
2022/12/25 10:51:36;;;;;;;1.30;0.60;;;12.40;98.20;;;;;;5012519;28;20049;-82
2022/12/25 10:54:19;;;;;;;0.60;0.60;;;12.40;98.00;;;;;;5029531;28;20033;-83
2022/12/25 10:57:00;;;;;;;1.42;0.82;;;12.50;97.90;;;;;;5028959;28;20036;-83
2022/12/25 10:59:33;;;;;;;1.20;0.70;;;12.50;97.80;;;;;;5026898;28;20022;-83
2022/12/25 11:02:34;;;;;;;0.60;0.38;;;12.60;97.70;;;;;;5005043;28;20022;-82
2022/12/25 11:05:12;;;;;;;0.40;0.40;;;12.70;97.50;;;;;;5023951;28;20030;-85
2022/12/25 11:07:54;;;;;;;0.82;0.60;;;12.70;97.40;;;;;;5007338;28;20523;-84
2022/12/25 11:10:31;;;;;;;0.73;0.55;;;12.80;97.20;;;;;;5027075;28;20022;-84
2022/12/25 11:12:59;;;;;;;0.63;0.63;;;12.80;97.10;;;;;;5026311;28;20129;-83
2022/12/25 11:15:35;;;;;;;2.55;0.85;;;12.90;97.00;;;;;;5008757;28;20041;-84
2022/12/25 11:18:18;;;;;;;0.80;0.52;;;12.90;96.70;;;;;;5008329;28;20122;-82
2022/12/25 11:20:52;;;;;;;1.50;0.70;;;12.90;96.10;;;;;;5027835;28;20025;-83
2022/12/25 11:23:20;;;;;;;1.38;0.80;;;12.90;96.10;;;;;;5012126;28;20026;-84
2022/12/25 11:26:01;;;;;;;2.58;0.82;;;12.90;96.10;;;;;;5028876;28;20026;-84
2022/12/25 11:28:29;;;;;;;1.08;0.65;;;12.90;96.30;;;;;;5029712;28;20080;-82
2022/12/25 11:31:00;;;;;;;0.85;0.60;;;12.80;96.30;;;;;;5030456;28;20029;-84
2022/12/25 11:33:30;;;;;;;0.88;0.50;;;12.90;96.40;;;;;;5012685;28;20110;-84
2022/12/25 11:35:59;;;;;;;1.42;0.68;;;12.90;96.40;;;;;;5012268;28;20084;-84
2022/12/25 11:38:27;;;;;;;0.57;0.57;;;12.90;96.40;;;;;;5012134;28;20006;-83
2022/12/25 11:40:57;;;;;;;1.85;0.70;;;13.00;96.20;;;;;;5027283;28;20026;-82
2022/12/25 11:43:29;;;;;;;0.82;0.70;;;13.00;96.10;;;;;;5028528;28;20022;-84
2022/12/25 11:46:23;;;;;;;0.47;0.47;;;13.00;95.80;;;;;;5025947;28;20028;-84
2022/12/25 11:49:07;;;;;;;1.25;0.70;;;13.00;95.80;;;;;;5025672;28;20022;-84
2022/12/25 11:51:38;;;;;;;0.70;0.70;;;12.90;95.90;;;;;;5030011;28;20014;-83
2022/12/25 11:54:30;;;;;;;1.00;0.90;;;12.90;96.00;;;;;;5013944;28;20014;-83
2022/12/25 11:57:01;;;;;;;3.47;0.80;;;13.00;96.10;;;;;;5033793;28;20144;-84
2022/12/25 11:59:37;;;;;;;0.77;0.77;;;13.00;95.90;;;;;;5036234;28;20048;-84
2022/12/25 12:02:20;;;;;;;1.05;0.70;;;13.00;95.90;;;;;;5018620;28;20057;-83
2022/12/25 12:04:53;;;;;;;1.25;0.68;;;13.10;95.80;;;;;;5032636;28;20026;-83
2022/12/25 12:07:31;;;;;;;2.40;0.80;;;13.10;95.70;;;;;;5036019;28;20026;-83
2022/12/25 12:10:04;;;;;;;1.70;0.75;;;13.10;95.60;;;;;;5019612;28;20045;-82
2022/12/25 12:12:39;;;;;;;0.82;0.80;;;13.10;95.60;;;;;;5037675;28;20014;-83
2022/12/25 12:15:30;;;;;;;0.90;0.75;;;13.10;95.50;;;;;;5036843;28;20073;-83
2022/12/25 12:18:17;;;;;;;1.05;0.80;;;13.20;95.40;;;;;;5037915;28;20060;-82
2022/12/25 12:20:43;;;;;;;0.73;0.73;;;13.30;95.20;;;;;;5033718;28;20041;-84
2022/12/25 12:23:16;;;;;;;0.65;0.40;;;13.30;94.80;;;;;;5015364;28;20410;-83
2022/12/25 12:25:43;;;;;;;1.42;0.60;;;13.40;94.30;;;;;;5033205;28;20036;-84
2022/12/25 12:28:51;;;;;;;0.95;0.70;;;13.50;94.20;;;;;;5033701;28;20026;-82
2022/12/25 12:31:35;;;;;;;1.80;1.05;;;13.60;93.80;;;;;;5016036;28;20041;-83
2022/12/25 12:34:02;;;;;;;1.10;1.00;;;13.60;93.70;;;;;;5032997;28;20030;-84
2022/12/25 12:36:28;;;;;;;2.85;1.42;;;13.70;93.60;;;;;;5032050;28;20056;-85
2022/12/25 12:39:25;;;;;;;1.80;1.58;;;13.60;93.40;;;;;;5015884;28;20025;-83
2022/12/25 12:41:59;;;;;;;3.92;2.00;;;13.60;93.50;;;;;;5015904;28;20034;-83
2022/12/25 12:44:40;;;;;;;2.83;1.70;;;13.60;93.50;;;;;;5015444;28;20029;-83
2022/12/25 12:47:55;;;;;;;3.08;1.77;;;13.50;93.50;;;;;;5015839;28;20121;-83
2022/12/25 12:50:41;;;;;;;1.55;1.45;;;13.40;93.70;;;;;;5015925;28;20033;-84
2022/12/25 12:53:22;;;;;;;1.98;1.60;;;13.30;94.20;;;;;;5033690;28;20084;-84
2022/12/25 12:55:49;;;;;;;0.75;0.75;;;13.20;94.90;;;;;;5032931;28;20029;-82
2022/12/25 12:58:36;;;;;;;1.27;0.93;;;13.20;95.00;;;;;;5015173;28;20033;-83
2022/12/25 13:01:31;;;;;;;1.13;1.02;;;13.20;95.20;;;;;;5015740;28;20068;-83
2022/12/25 13:04:25;;;;;;;1.55;0.95;;;13.30;95.30;;;;;;4945882;28;20108;-83
2022/12/25 13:07:03;;;;;;;1.15;0.82;;;13.30;95.30;;;;;;5034050;28;20029;-84
2022/12/25 13:10:04;;;;;;;1.83;0.90;;;13.30;95.40;;;;;;5016075;28;20044;-83
2022/12/25 13:12:30;;;;;;;2.25;1.20;;;13.30;95.40;;;;;;4978543;28;20041;-84
2022/12/25 13:14:57;;;;;;;1.25;1.15;;;13.40;95.30;;;;;;5032285;28;20050;-84
2022/12/25 13:17:24;;;;;;;1.48;1.10;;;13.30;95.30;;;;;;5016219;28;20026;-83
2022/12/25 13:19:56;;;;;;;3.38;1.58;;;13.30;95.30;;;;;;5033579;28;20030;-82
2022/12/25 13:22:29;;;;;;;5.85;2.50;;;13.30;95.40;;;;;;5032842;28;20025;-85
2022/12/25 13:25:00;;;;;;;3.50;2.78;;;13.30;95.60;;;;;;5028626;28;20257;-83
2022/12/25 13:27:29;;;;;;;4.10;2.65;;;13.30;95.70;;;;;;5029541;28;20057;-83
2022/12/25 13:29:56;;;;;;;1.75;1.10;;;13.30;95.60;;;;;;5011683;28;20103;-84
2022/12/25 13:32:30;;;;;;;1.70;0.98;;;13.30;95.30;;;;;;5029816;28;20017;-84
2022/12/25 13:34:58;;;;;;;1.88;1.10;;;13.30;95.40;;;;;;5032307;28;20052;-84
2022/12/25 13:37:27;;;;;;;1.48;1.05;;;13.30;95.50;;;;;;5032486;28;20130;-84
2022/12/25 13:39:54;;;;;;;0.98;0.98;;;13.20;95.60;;;;;;5014795;28;20086;-84
2022/12/25 13:42:26;;;;;;;1.88;1.10;;;13.20;95.70;;;;;;5032299;28;20018;-84
2022/12/25 13:45:05;;;;;;;1.85;1.10;;;13.10;95.70;;;;;;5031089;28;20026;-84
2022/12/25 13:47:36;;;;;;;1.13;1.13;;;13.10;95.80;;;;;;5031303;28;20021;-83
2022/12/25 13:50:19;;;;;;;1.60;1.30;;;13.10;95.90;;;;;;5013831;28;20022;-84
2022/12/25 13:52:44;;;;;;;1.50;1.13;;;13.10;95.90;;;;;;5031369;28;20033;-82
2022/12/25 13:55:12;;;;;;;3.67;1.10;;;13.20;95.60;;;;;;5030285;28;20073;-84
2022/12/25 13:57:43;;;;;;;1.55;1.10;;;13.20;95.40;;;;;;5030761;28;20057;-82
2022/12/25 14:00:19;;;;;;;0.77;0.77;;;13.10;95.30;;;;;;5031950;28;20030;-82
2022/12/25 14:02:45;;;;;;;1.42;1.13;;;13.10;95.30;;;;;;5032020;28;20026;-83
2022/12/25 14:05:29;;;;;;;1.02;0.90;;;13.10;95.30;;;;;;5031294;28;20022;-82
2022/12/25 14:08:01;;;;;;;1.85;1.02;;;13.00;95.50;;;;;;5014735;28;20030;-83
2022/12/25 14:10:32;;;;;;;1.80;1.00;;;13.00;95.60;;;;;;5033673;28;20084;-83
2022/12/25 14:13:03;;;;;;;0.98;0.88;;;12.90;95.60;;;;;;5015678;28;20037;-84
2022/12/25 14:15:32;;;;;;;0.98;0.98;;;12.80;95.90;;;;;;5034273;28;20066;-83
2022/12/25 14:18:05;;;;;;;1.33;1.00;;;12.70;96.00;;;;;;5032657;28;20108;-84
2022/12/25 14:20:42;;;;;;;1.13;1.02;;;12.70;96.20;;;;;;5031280;28;20050;-83
2022/12/25 14:23:14;;;;;;;1.50;1.17;;;12.60;96.30;;;;;;5033064;28;20034;-83
2022/12/25 14:25:43;;;;;;;0.80;0.80;;;12.60;96.30;;;;;;5035068;28;20029;-85
2022/12/25 14:28:24;;;;;;;1.10;1.00;;;12.50;96.40;;;;;;5034026;28;20026;-83
2022/12/25 14:30:50;;;;;;;1.75;1.23;;;12.40;96.60;;;;;;5029347;28;20018;-82
2022/12/25 14:33:24;;;;;;;2.47;1.35;;;12.30;96.70;;;;;;5029409;28;20489;-85
2022/12/25 14:35:51;;;;;;;2.90;1.60;;;12.20;97.10;;;;;;5031554;28;20030;-82
2022/12/25 14:38:24;;;;;;;2.85;1.40;;;12.10;97.30;;;;;;5030125;28;20022;-84
2022/12/25 14:41:17;;;;;;;1.33;1.23;;;12.10;97.40;;;;;;5031033;28;20034;-82
2022/12/25 14:43:54;;;;;;;1.42;1.10;;;12.20;97.40;;;;;;5031356;28;20033;-82
2022/12/25 14:46:25;;;;;;;1.35;1.25;;;12.10;97.30;;;;;;5013509;28;20025;-84
2022/12/25 14:49:24;;;;;;;1.20;1.10;;;12.00;97.40;;;;;;5013255;28;20029;-82
2022/12/25 14:51:50;;;;;;;3.72;1.20;;;11.90;97.50;;;;;;5014658;28;20096;-82